www.cux-wetter.de
Wetterdaten: Samstag, 12.02.2011
Datum Zeit Temp. A. Feuchte A. Luftdruck Regen Wind Richtung Richtung Sonnenschein Solar Taupunkt Windchill Windben
12.02.2011 00:00 1,4 C 80 % 1016,5 hPa 0,0 l/m 9,7 km/h (2 Bft) NO 50 0 min 0 W/m -1,7 C -1,7 C 9,7 km/h (2 Bft)
12.02.2011 00:05 1,3 C 80 % 1016,5 hPa 0,0 l/m 15,1 km/h (3 Bft) O-NO 65 0 min 0 W/m -1,8 C -5,5 C 15,1 km/h (3 Bft)
12.02.2011 00:10 1,2 C 80 % 1016,5 hPa 0,0 l/m 15,8 km/h (3 Bft) O-NO 60 0 min 0 W/m -1,9 C -6,0 C 15,8 km/h (3 Bft)
12.02.2011 00:16 1,2 C 80 % 1016,5 hPa 0,0 l/m 9,8 km/h (2 Bft) O-NO 65 0 min 0 W/m -1,9 C -2,0 C 9,8 km/h (2 Bft)
12.02.2011 00:20 1,2 C 80 % 1016,5 hPa 0,0 l/m 10,4 km/h (2 Bft) O 80 0 min 0 W/m -1,9 C -2,4 C 10,4 km/h (2 Bft)
12.02.2011 00:25 1,2 C 80 % 1016,5 hPa 0,0 l/m 9,3 km/h (2 Bft) O-NO 60 0 min 0 W/m -1,9 C -1,5 C 9,3 km/h (2 Bft)
12.02.2011 00:30 1,2 C 80 % 1016,5 hPa 0,0 l/m 13,9 km/h (3 Bft) O 85 0 min 0 W/m -1,9 C -4,9 C 13,9 km/h (3 Bft)
12.02.2011 00:35 1,2 C 80 % 1016,5 hPa 0,0 l/m 11,4 km/h (2 Bft) NO 55 0 min 0 W/m -1,9 C -3,2 C 11,4 km/h (2 Bft)
12.02.2011 00:40 1,2 C 80 % 1016,5 hPa 0,0 l/m 13,9 km/h (3 Bft) O-NO 65 0 min 0 W/m -1,9 C -4,9 C 13,9 km/h (3 Bft)
12.02.2011 00:45 1,2 C 80 % 1016,5 hPa 0,0 l/m 8,3 km/h (2 Bft) O-NO 60 0 min 0 W/m -1,9 C -0,7 C 8,3 km/h (2 Bft)
12.02.2011 00:50 1,2 C 80 % 1017,5 hPa 0,0 l/m 13,3 km/h (3 Bft) NO 50 0 min 0 W/m -1,9 C -4,5 C 13,3 km/h (3 Bft)
12.02.2011 00:55 1,2 C 80 % 1017,5 hPa 0,0 l/m 9,6 km/h (2 Bft) O-NO 60 0 min 0 W/m -1,9 C -1,8 C 9,6 km/h (2 Bft)
12.02.2011 01:01 1,2 C 80 % 1017,5 hPa 0,0 l/m 7,9 km/h (2 Bft) O-NO 60 0 min 0 W/m -1,9 C -0,3 C 7,9 km/h (2 Bft)
12.02.2011 01:05 1,2 C 80 % 1017,5 hPa 0,0 l/m 8,5 km/h (2 Bft) O-NO 60 0 min 0 W/m -1,9 C -0,8 C 8,5 km/h (2 Bft)
12.02.2011 01:10 1,2 C 80 % 1017,5 hPa 0,0 l/m 18,6 km/h (3 Bft) O 80 0 min 0 W/m -1,9 C -7,4 C 18,6 km/h (3 Bft)
12.02.2011 01:15 1,1 C 80 % 1017,5 hPa 0,3 l/m 18,6 km/h (3 Bft) O-NO 75 0 min 0 W/m -2,0 C -7,6 C 18,6 km/h (3 Bft)
12.02.2011 01:20 1,1 C 80 % 1017,5 hPa 0,0 l/m 14,7 km/h (3 Bft) O-NO 75 0 min 0 W/m -2,0 C -5,5 C 14,7 km/h (3 Bft)
12.02.2011 01:25 1,2 C 80 % 1017,5 hPa 0,0 l/m 24,9 km/h (4 Bft) O-NO 65 0 min 0 W/m -1,9 C -10,1 C 24,9 km/h (4 Bft)
12.02.2011 01:31 1,2 C 80 % 1017,5 hPa 0,0 l/m 15,5 km/h (3 Bft) O-NO 70 0 min 0 W/m -1,9 C -5,8 C 15,5 km/h (3 Bft)
12.02.2011 01:35 1,2 C 79 % 1017,5 hPa 0,0 l/m 17,2 km/h (3 Bft) O 85 0 min 0 W/m -2,0 C -6,7 C 17,2 km/h (3 Bft)
12.02.2011 01:40 1,3 C 78 % 1017,5 hPa 0,0 l/m 20,5 km/h (4 Bft) O-SO 105 0 min 0 W/m -2,1 C -8,2 C 20,5 km/h (4 Bft)
12.02.2011 01:45 1,3 C 77 % 1017,5 hPa 0,0 l/m 20,0 km/h (4 Bft) O 85 0 min 0 W/m -2,3 C -8,0 C 20,0 km/h (4 Bft)
12.02.2011 01:50 1,3 C 76 % 1017,5 hPa 0,0 l/m 25,7 km/h (4 Bft) O-SO 120 0 min 0 W/m -2,5 C -10,2 C 25,7 km/h (4 Bft)
12.02.2011 01:55 1,2 C 74 % 1017,5 hPa 0,0 l/m 19,8 km/h (3 Bft) O 90 0 min 0 W/m -2,9 C -8,0 C 19,8 km/h (3 Bft)
12.02.2011 02:00 1,2 C 74 % 1017,5 hPa 0,0 l/m 21,0 km/h (4 Bft) O-NO 75 0 min 0 W/m -2,9 C -8,5 C 21,0 km/h (4 Bft)
12.02.2011 02:05 1,2 C 74 % 1017,5 hPa 0,0 l/m 19,8 km/h (3 Bft) O 90 0 min 0 W/m -2,9 C -8,0 C 19,8 km/h (3 Bft)
12.02.2011 02:10 1,1 C 74 % 1017,5 hPa 0,0 l/m 23,0 km/h (4 Bft) O 95 0 min 0 W/m -3,0 C -9,5 C 23,0 km/h (4 Bft)
12.02.2011 02:15 1,1 C 75 % 1018,5 hPa 0,0 l/m 17,8 km/h (3 Bft) O 80 0 min 0 W/m -2,8 C -7,2 C 17,8 km/h (3 Bft)
12.02.2011 02:20 1,1 C 75 % 1018,5 hPa 0,0 l/m 11,3 km/h (2 Bft) O-NO 75 0 min 0 W/m -2,8 C -3,2 C 11,3 km/h (2 Bft)
12.02.2011 02:25 1,1 C 74 % 1018,5 hPa 0,0 l/m 11,3 km/h (2 Bft) O-NO 75 0 min 0 W/m -3,0 C -3,2 C 11,3 km/h (2 Bft)
12.02.2011 02:30 1,0 C 75 % 1018,5 hPa 0,0 l/m 22,6 km/h (4 Bft) O-SO 105 0 min 0 W/m -2,9 C -9,4 C 22,6 km/h (4 Bft)
12.02.2011 02:35 1,0 C 75 % 1018,5 hPa 0,0 l/m 14,8 km/h (3 Bft) O-SO 110 0 min 0 W/m -2,9 C -5,7 C 14,8 km/h (3 Bft)
12.02.2011 02:40 1,0 C 74 % 1018,5 hPa 0,0 l/m 19,7 km/h (3 Bft) O 80 0 min 0 W/m -3,1 C -8,2 C 19,7 km/h (3 Bft)
12.02.2011 02:45 0,9 C 75 % 1018,5 hPa 0,0 l/m 16,5 km/h (3 Bft) O 100 0 min 0 W/m -3,0 C -6,7 C 16,5 km/h (3 Bft)
12.02.2011 02:50 0,9 C 74 % 1018,5 hPa 0,0 l/m 17,9 km/h (3 Bft) O-SO 115 0 min 0 W/m -3,2 C -7,5 C 17,9 km/h (3 Bft)
12.02.2011 02:55 0,9 C 75 % 1018,5 hPa 0,0 l/m 16,2 km/h (3 Bft) O-SO 115 0 min 0 W/m -3,0 C -6,6 C 16,2 km/h (3 Bft)
12.02.2011 03:00 0,9 C 74 % 1018,5 hPa 0,0 l/m 21,5 km/h (4 Bft) O 100 0 min 0 W/m -3,2 C -9,1 C 21,5 km/h (4 Bft)
12.02.2011 03:05 0,8 C 73 % 1018,5 hPa 0,0 l/m 26,6 km/h (4 Bft) O 100 0 min 0 W/m -3,5 C -11,2 C 26,6 km/h (4 Bft)
12.02.2011 03:10 0,9 C 74 % 1018,5 hPa 0,0 l/m 9,4 km/h (2 Bft) O 85 0 min 0 W/m -3,2 C -2,0 C 9,4 km/h (2 Bft)
12.02.2011 03:15 0,9 C 74 % 1018,5 hPa 0,0 l/m 18,5 km/h (3 Bft) O-SO 110 0 min 0 W/m -3,2 C -7,8 C 18,5 km/h (3 Bft)
12.02.2011 03:20 0,9 C 74 % 1018,5 hPa 0,0 l/m 14,5 km/h (3 Bft) O 100 0 min 0 W/m -3,2 C -5,6 C 14,5 km/h (3 Bft)
12.02.2011 03:25 1,0 C 73 % 1018,5 hPa 0,0 l/m 14,1 km/h (3 Bft) O-SO 115 0 min 0 W/m -3,3 C -5,2 C 14,1 km/h (3 Bft)
12.02.2011 03:30 1,0 C 73 % 1018,5 hPa 0,0 l/m 28,0 km/h (5 Bft) O-SO 110 0 min 0 W/m -3,3 C -11,4 C 28,0 km/h (5 Bft)
12.02.2011 03:35 1,1 C 72 % 1018,5 hPa 0,0 l/m 23,3 km/h (4 Bft) O-SO 110 0 min 0 W/m -3,4 C -9,6 C 23,3 km/h (4 Bft)
12.02.2011 03:40 1,1 C 73 % 1018,5 hPa 0,0 l/m 20,6 km/h (4 Bft) SO 130 0 min 0 W/m -3,2 C -8,5 C 20,6 km/h (4 Bft)
12.02.2011 03:45 1,1 C 72 % 1018,5 hPa 0,0 l/m 20,7 km/h (4 Bft) O-SO 110 0 min 0 W/m -3,4 C -8,5 C 20,7 km/h (4 Bft)
12.02.2011 03:50 1,2 C 72 % 1018,5 hPa 0,0 l/m 19,2 km/h (3 Bft) O 100 0 min 0 W/m -3,3 C -7,7 C 19,2 km/h (3 Bft)
12.02.2011 03:55 1,2 C 72 % 1018,5 hPa 0,0 l/m 13,6 km/h (3 Bft) O-SO 115 0 min 0 W/m -3,3 C -4,7 C 13,6 km/h (3 Bft)
12.02.2011 04:00 1,2 C 72 % 1018,5 hPa 0,0 l/m 16,0 km/h (3 Bft) O-SO 110 0 min 0 W/m -3,3 C -6,1 C 16,0 km/h (3 Bft)
12.02.2011 04:05 1,2 C 71 % 1018,5 hPa 0,0 l/m 19,0 km/h (3 Bft) SO 125 0 min 0 W/m -3,5 C -7,6 C 19,0 km/h (3 Bft)
12.02.2011 04:10 1,1 C 71 % 1018,5 hPa 0,0 l/m 16,3 km/h (3 Bft) O 95 0 min 0 W/m -3,6 C -6,4 C 16,3 km/h (3 Bft)
12.02.2011 04:15 1,1 C 71 % 1018,5 hPa 0,0 l/m 22,2 km/h (4 Bft) O-SO 115 0 min 0 W/m -3,6 C -9,2 C 22,2 km/h (4 Bft)
12.02.2011 04:20 1,1 C 70 % 1018,5 hPa 0,0 l/m 24,0 km/h (4 Bft) O-SO 115 0 min 0 W/m -3,7 C -9,9 C 24,0 km/h (4 Bft)
12.02.2011 04:25 0,9 C 69 % 1018,5 hPa 0,0 l/m 22,1 km/h (4 Bft) O 100 0 min 0 W/m -4,1 C -9,4 C 22,1 km/h (4 Bft)
12.02.2011 04:30 0,9 C 69 % 1018,5 hPa 0,0 l/m 35,1 km/h (5 Bft) O-SO 115 0 min 0 W/m -4,1 C -13,5 C 35,1 km/h (5 Bft)
12.02.2011 04:35 0,9 C 69 % 1018,5 hPa 0,0 l/m 16,4 km/h (3 Bft) O-SO 120 0 min 0 W/m -4,1 C -6,7 C 16,4 km/h (3 Bft)
12.02.2011 04:40 0,9 C 69 % 1019,5 hPa 0,0 l/m 25,3 km/h (4 Bft) SO 125 0 min 0 W/m -4,1 C -10,6 C 25,3 km/h (4 Bft)
12.02.2011 04:45 0,9 C 69 % 1019,5 hPa 0,0 l/m 15,5 km/h (3 Bft) O-SO 110 0 min 0 W/m -4,1 C -6,2 C 15,5 km/h (3 Bft)
12.02.2011 04:50 0,9 C 69 % 1018,5 hPa 0,0 l/m 20,3 km/h (4 Bft) O-SO 120 0 min 0 W/m -4,1 C -8,6 C 20,3 km/h (4 Bft)
12.02.2011 04:55 0,8 C 69 % 1018,5 hPa 0,0 l/m 15,0 km/h (3 Bft) O-SO 115 0 min 0 W/m -4,2 C -6,0 C 15,0 km/h (3 Bft)
12.02.2011 05:00 0,8 C 70 % 1018,5 hPa 0,0 l/m 15,0 km/h (3 Bft) O-SO 115 0 min 0 W/m -4,0 C -6,0 C 15,0 km/h (3 Bft)
12.02.2011 05:05 0,8 C 70 % 1018,5 hPa 0,0 l/m 16,5 km/h (3 Bft) SO 140 0 min 0 W/m -4,0 C -6,9 C 16,5 km/h (3 Bft)
12.02.2011 05:10 0,7 C 70 % 1018,5 hPa 0,0 l/m 19,0 km/h (3 Bft) O-SO 115 0 min 0 W/m -4,1 C -8,3 C 19,0 km/h (3 Bft)
12.02.2011 05:15 0,7 C 70 % 1018,5 hPa 0,0 l/m 22,0 km/h (4 Bft) O-SO 120 0 min 0 W/m -4,1 C -9,6 C 22,0 km/h (4 Bft)
12.02.2011 05:20 0,7 C 70 % 1018,5 hPa 0,0 l/m 22,5 km/h (4 Bft) O-SO 115 0 min 0 W/m -4,1 C -9,8 C 22,5 km/h (4 Bft)
12.02.2011 05:25 0,7 C 70 % 1018,5 hPa 0,0 l/m 17,8 km/h (3 Bft) SO 130 0 min 0 W/m -4,1 C -7,7 C 17,8 km/h (3 Bft)
12.02.2011 05:30 0,7 C 70 % 1019,5 hPa 0,0 l/m 29,9 km/h (5 Bft) SO 140 0 min 0 W/m -4,1 C -12,4 C 29,9 km/h (5 Bft)
12.02.2011 05:35 0,7 C 70 % 1019,5 hPa 0,0 l/m 22,3 km/h (4 Bft) O-SO 115 0 min 0 W/m -4,1 C -9,7 C 22,3 km/h (4 Bft)
12.02.2011 05:40 0,7 C 70 % 1019,5 hPa 0,0 l/m 11,5 km/h (2 Bft) SO 125 0 min 0 W/m -4,1 C -3,8 C 11,5 km/h (2 Bft)
12.02.2011 05:46 0,8 C 71 % 1019,5 hPa 0,0 l/m 20,6 km/h (4 Bft) O-SO 115 0 min 0 W/m -3,8 C -8,9 C 20,6 km/h (4 Bft)
12.02.2011 05:50 0,8 C 71 % 1018,5 hPa 0,0 l/m 21,3 km/h (4 Bft) O-SO 120 0 min 0 W/m -3,8 C -9,2 C 21,3 km/h (4 Bft)
12.02.2011 05:55 0,8 C 71 % 1018,5 hPa 0,0 l/m 18,0 km/h (3 Bft) SO 135 0 min 0 W/m -3,8 C -7,6 C 18,0 km/h (3 Bft)
12.02.2011 06:00 0,8 C 71 % 1018,5 hPa 0,0 l/m 22,3 km/h (4 Bft) O-SO 115 0 min 0 W/m -3,8 C -9,6 C 22,3 km/h (4 Bft)
12.02.2011 06:05 0,8 C 71 % 1018,5 hPa 0,0 l/m 26,8 km/h (4 Bft) SO 135 0 min 0 W/m -3,8 C -11,3 C 26,8 km/h (4 Bft)
12.02.2011 06:10 0,8 C 71 % 1019,5 hPa 0,0 l/m 19,5 km/h (3 Bft) SO 130 0 min 0 W/m -3,8 C -8,4 C 19,5 km/h (3 Bft)
12.02.2011 06:16 0,8 C 72 % 1019,5 hPa 0,0 l/m 19,0 km/h (3 Bft) SO 135 0 min 0 W/m -3,7 C -8,1 C 19,0 km/h (3 Bft)
12.02.2011 06:20 0,9 C 72 % 1019,5 hPa 0,0 l/m 20,0 km/h (4 Bft) O-SO 120 0 min 0 W/m -3,6 C -8,5 C 20,0 km/h (4 Bft)
12.02.2011 06:25 0,9 C 71 % 1019,5 hPa 0,0 l/m 14,6 km/h (3 Bft) SO 130 0 min 0 W/m -3,7 C -5,7 C 14,6 km/h (3 Bft)
12.02.2011 06:30 0,9 C 71 % 1019,5 hPa 0,0 l/m 23,5 km/h (4 Bft) SO 130 0 min 0 W/m -3,7 C -9,9 C 23,5 km/h (4 Bft)
12.02.2011 06:35 0,9 C 71 % 1019,5 hPa 0,0 l/m 19,8 km/h (3 Bft) SO 130 0 min 0 W/m -3,7 C -8,4 C 19,8 km/h (3 Bft)
12.02.2011 06:40 0,9 C 71 % 1019,5 hPa 0,0 l/m 21,1 km/h (4 Bft) O-SO 105 0 min 0 W/m -3,7 C -9,0 C 21,1 km/h (4 Bft)
12.02.2011 06:45 0,8 C 71 % 1019,5 hPa 0,0 l/m 17,0 km/h (3 Bft) O-SO 105 0 min 0 W/m -3,8 C -7,1 C 17,0 km/h (3 Bft)
12.02.2011 06:50 0,7 C 71 % 1018,5 hPa 0,0 l/m 15,0 km/h (3 Bft) SO 130 0 min 0 W/m -3,9 C -6,1 C 15,0 km/h (3 Bft)
12.02.2011 06:55 0,7 C 71 % 1019,5 hPa 0,0 l/m 22,8 km/h (4 Bft) S-SO 150 0 min 0 W/m -3,9 C -9,9 C 22,8 km/h (4 Bft)
12.02.2011 07:00 0,7 C 71 % 1019,5 hPa 0,0 l/m 20,6 km/h (4 Bft) SO 140 0 min 0 W/m -3,9 C -9,0 C 20,6 km/h (4 Bft)
12.02.2011 07:05 0,7 C 71 % 1019,5 hPa 0,0 l/m 22,8 km/h (4 Bft) SO 140 0 min 0 W/m -3,9 C -9,9 C 22,8 km/h (4 Bft)
12.02.2011 07:10 0,6 C 71 % 1019,5 hPa 0,0 l/m 15,9 km/h (3 Bft) O-SO 110 0 min 0 W/m -4,0 C -6,8 C 15,9 km/h (3 Bft)
12.02.2011 07:15 0,5 C 71 % 1019,5 hPa 0,0 l/m 24,2 km/h (4 Bft) SO 135 0 min 0 W/m -4,1 C -10,7 C 24,2 km/h (4 Bft)
12.02.2011 07:21 0,5 C 72 % 1019,5 hPa 0,0 l/m 20,0 km/h (4 Bft) SO 135 0 min 0 W/m -3,9 C -9,0 C 20,0 km/h (4 Bft)
12.02.2011 07:25 0,4 C 72 % 1019,5 hPa 0,0 l/m 18,7 km/h (3 Bft) O-SO 120 0 min 0 W/m -4,0 C -8,5 C 18,7 km/h (3 Bft)
12.02.2011 07:30 0,4 C 72 % 1019,5 hPa 0,0 l/m 21,3 km/h (4 Bft) O-SO 115 0 min 0 W/m -4,0 C -9,7 C 21,3 km/h (4 Bft)
12.02.2011 07:35 0,3 C 72 % 1019,5 hPa 0,0 l/m 23,8 km/h (4 Bft) SO 145 0 min 0 W/m -4,1 C -10,9 C 23,8 km/h (4 Bft)
12.02.2011 07:40 0,3 C 71 % 1019,5 hPa 0,0 l/m 22,5 km/h (4 Bft) SO 135 0 min 0 W/m -4,3 C -10,3 C 22,5 km/h (4 Bft)
12.02.2011 07:45 0,3 C 71 % 1019,5 hPa 0,0 l/m 21,6 km/h (4 Bft) SO 130 0 min 0 W/m -4,3 C -10,0 C 21,6 km/h (4 Bft)
12.02.2011 07:50 0,3 C 72 % 1019,5 hPa 0,0 l/m 23,0 km/h (4 Bft) SO 135 0 min 0 W/m -4,1 C -10,5 C 23,0 km/h (4 Bft)
12.02.2011 07:55 0,3 C 72 % 1019,5 hPa 0,0 l/m 22,8 km/h (4 Bft) SO 135 0 min 0 W/m -4,1 C -10,5 C 22,8 km/h (4 Bft)
12.02.2011 08:01 0,3 C 72 % 1019,5 hPa 0,0 l/m 18,3 km/h (3 Bft) SO 125 0 min 0 W/m -4,1 C -8,4 C 18,3 km/h (3 Bft)
12.02.2011 08:05 0,3 C 72 % 1019,5 hPa 0,0 l/m 20,5 km/h (4 Bft) SO 125 0 min 0 W/m -4,1 C -9,5 C 20,5 km/h (4 Bft)
12.02.2011 08:10 0,3 C 72 % 1019,5 hPa 0,0 l/m 18,7 km/h (3 Bft) O-SO 120 0 min 0 W/m -4,1 C -8,6 C 18,7 km/h (3 Bft)
12.02.2011 08:15 0,2 C 72 % 1019,5 hPa 0,0 l/m 24,8 km/h (4 Bft) SO 135 0 min 0 W/m -4,2 C -11,4 C 24,8 km/h (4 Bft)
12.02.2011 08:20 0,2 C 72 % 1019,5 hPa 0,0 l/m 25,3 km/h (4 Bft) O-SO 110 0 min 0 W/m -4,2 C -11,6 C 25,3 km/h (4 Bft)
12.02.2011 08:25 0,2 C 72 % 1019,5 hPa 0,0 l/m 26,8 km/h (4 Bft) SO 145 0 min 0 W/m -4,2 C -12,1 C 26,8 km/h (4 Bft)
12.02.2011 08:30 0,2 C 72 % 1019,5 hPa 0,0 l/m 18,3 km/h (3 Bft) SO 140 0 min 0 W/m -4,2 C -8,6 C 18,3 km/h (3 Bft)
12.02.2011 08:35 0,2 C 72 % 1019,5 hPa 0,0 l/m 17,5 km/h (3 Bft) O-SO 110 0 min 0 W/m -4,2 C -8,1 C 17,5 km/h (3 Bft)
12.02.2011 08:40 0,1 C 72 % 1019,5 hPa 0,0 l/m 26,5 km/h (4 Bft) SO 130 0 min 0 W/m -4,3 C -12,1 C 26,5 km/h (4 Bft)
12.02.2011 08:45 0,0 C 72 % 1019,5 hPa 0,0 l/m 28,2 km/h (5 Bft) O-SO 120 0 min 0 W/m -4,4 C -12,8 C 28,2 km/h (5 Bft)
12.02.2011 08:50 0,0 C 73 % 1019,5 hPa 0,0 l/m 27,5 km/h (5 Bft) O-SO 115 0 min 0 W/m -4,2 C -12,6 C 27,5 km/h (5 Bft)
12.02.2011 08:55 -0,2 C 73 % 1019,5 hPa 0,0 l/m 22,2 km/h (4 Bft) SO 145 0 min 0 W/m -4,4 C -10,9 C 22,2 km/h (4 Bft)
12.02.2011 09:00 0,1 C 73 % 1019,5 hPa 0,0 l/m 24,1 km/h (4 Bft) SO 140 0 min 0 W/m -4,2 C -11,2 C 24,1 km/h (4 Bft)
12.02.2011 09:05 0,1 C 73 % 1019,5 hPa 0,0 l/m 21,9 km/h (4 Bft) SO 135 0 min 0 W/m -4,2 C -10,3 C 21,9 km/h (4 Bft)
12.02.2011 09:10 0,2 C 73 % 1019,5 hPa 0,0 l/m 16,3 km/h (3 Bft) O 90 0 min 0 W/m -4,1 C -7,5 C 16,3 km/h (3 Bft)
12.02.2011 09:15 0,2 C 73 % 1019,5 hPa 0,0 l/m 18,3 km/h (3 Bft) SO 125 0 min 0 W/m -4,1 C -8,6 C 18,3 km/h (3 Bft)
12.02.2011 09:20 0,3 C 73 % 1019,5 hPa 0,0 l/m 19,6 km/h (3 Bft) SO 130 0 min 0 W/m -4,0 C -9,1 C 19,6 km/h (3 Bft)
12.02.2011 09:25 0,3 C 73 % 1019,5 hPa 0,0 l/m 26,4 km/h (4 Bft) SO 130 0 min 0 W/m -4,0 C -11,8 C 26,4 km/h (4 Bft)
12.02.2011 09:30 0,3 C 73 % 1019,5 hPa 0,0 l/m 24,5 km/h (4 Bft) SO 125 0 min 0 W/m -4,0 C -11,1 C 24,5 km/h (4 Bft)
12.02.2011 09:35 0,3 C 73 % 1019,5 hPa 0,0 l/m 18,6 km/h (3 Bft) O-SO 115 0 min 0 W/m -4,0 C -8,6 C 18,6 km/h (3 Bft)
12.02.2011 09:40 0,5 C 73 % 1019,5 hPa 0,0 l/m 30,6 km/h (5 Bft) SO 125 0 min 0 W/m -3,8 C -12,9 C 30,6 km/h (5 Bft)
12.02.2011 09:45 0,5 C 73 % 1019,5 hPa 0,0 l/m 24,0 km/h (4 Bft) SO 130 0 min 0 W/m -3,8 C -10,7 C 24,0 km/h (4 Bft)
12.02.2011 09:50 0,5 C 73 % 1019,5 hPa 0,0 l/m 25,6 km/h (4 Bft) O-SO 120 0 min 0 W/m -3,8 C -11,3 C 25,6 km/h (4 Bft)
12.02.2011 09:55 0,5 C 73 % 1019,5 hPa 0,0 l/m 17,0 km/h (3 Bft) SO 125 0 min 0 W/m -3,8 C -7,5 C 17,0 km/h (3 Bft)
12.02.2011 10:00 0,5 C 73 % 1019,5 hPa 0,0 l/m 27,1 km/h (5 Bft) SO 135 0 min 0 W/m -3,8 C -11,8 C 27,1 km/h (5 Bft)
12.02.2011 10:05 0,5 C 73 % 1019,5 hPa 0,0 l/m 24,6 km/h (4 Bft) SO 125 0 min 0 W/m -3,8 C -10,9 C 24,6 km/h (4 Bft)
12.02.2011 10:10 0,6 C 73 % 1019,5 hPa 0,0 l/m 23,6 km/h (4 Bft) SO 130 0 min 0 W/m -3,7 C -10,4 C 23,6 km/h (4 Bft)
12.02.2011 10:15 0,5 C 73 % 1019,5 hPa 0,0 l/m 27,4 km/h (5 Bft) SO 140 0 min 0 W/m -3,8 C -11,9 C 27,4 km/h (5 Bft)
12.02.2011 10:20 0,5 C 73 % 1019,5 hPa 0,0 l/m 28,2 km/h (5 Bft) SO 140 0 min 0 W/m -3,8 C -12,1 C 28,2 km/h (5 Bft)
12.02.2011 10:25 0,5 C 73 % 1019,5 hPa 0,0 l/m 19,8 km/h (3 Bft) SO 135 0 min 0 W/m -3,8 C -8,9 C 19,8 km/h (3 Bft)
12.02.2011 10:30 0,5 C 73 % 1019,5 hPa 0,0 l/m 26,7 km/h (4 Bft) SO 130 0 min 0 W/m -3,8 C -11,6 C 26,7 km/h (4 Bft)
12.02.2011 10:35 0,5 C 73 % 1019,5 hPa 0,0 l/m 20,1 km/h (4 Bft) SO 135 0 min 0 W/m -3,8 C -9,0 C 20,1 km/h (4 Bft)
12.02.2011 10:40 0,6 C 73 % 1019,5 hPa 0,0 l/m 23,8 km/h (4 Bft) SO 140 0 min 0 W/m -3,7 C -10,5 C 23,8 km/h (4 Bft)
12.02.2011 10:45 0,6 C 73 % 1019,5 hPa 0,0 l/m 24,5 km/h (4 Bft) SO 130 0 min 0 W/m -3,7 C -10,7 C 24,5 km/h (4 Bft)
12.02.2011 10:50 0,7 C 73 % 1019,5 hPa 0,0 l/m 20,1 km/h (4 Bft) SO 135 0 min 0 W/m -3,6 C -8,8 C 20,1 km/h (4 Bft)
12.02.2011 10:55 0,6 C 73 % 1019,5 hPa 0,0 l/m 22,9 km/h (4 Bft) SO 135 0 min 0 W/m -3,7 C -10,1 C 22,9 km/h (4 Bft)
12.02.2011 11:00 0,7 C 72 % 1019,5 hPa 0,0 l/m 22,8 km/h (4 Bft) SO 140 0 min 0 W/m -3,8 C -9,9 C 22,8 km/h (4 Bft)
12.02.2011 11:05 0,9 C 72 % 1018,5 hPa 0,0 l/m 16,8 km/h (3 Bft) O-SO 120 0 min 0 W/m -3,6 C -6,9 C 16,8 km/h (3 Bft)
12.02.2011 11:10 1,2 C 74 % 1018,5 hPa 0,0 l/m 25,3 km/h (4 Bft) S-SO 150 0 min 0 W/m -2,9 C -10,2 C 25,3 km/h (4 Bft)
12.02.2011 11:15 1,5 C 71 % 1018,5 hPa 0,0 l/m 20,0 km/h (4 Bft) S-SO 155 0 min 0 W/m -3,2 C -7,7 C 20,0 km/h (4 Bft)
12.02.2011 11:20 1,7 C 70 % 1018,5 hPa 0,0 l/m 22,3 km/h (4 Bft) SO 140 0 min 0 W/m -3,2 C -8,4 C 22,3 km/h (4 Bft)
12.02.2011 11:25 1,8 C 70 % 1018,5 hPa 0,0 l/m 21,0 km/h (4 Bft) S-SO 160 0 min 0 W/m -3,1 C -7,7 C 21,0 km/h (4 Bft)
12.02.2011 11:30 1,8 C 68 % 1018,5 hPa 0,0 l/m 23,5 km/h (4 Bft) S-SO 150 0 min 0 W/m -3,5 C -8,7 C 23,5 km/h (4 Bft)
12.02.2011 11:35 1,6 C 68 % 1018,5 hPa 0,0 l/m 23,0 km/h (4 Bft) S-SO 155 0 min 0 W/m -3,7 C -8,8 C 23,0 km/h (4 Bft)
12.02.2011 11:40 1,5 C 68 % 1018,5 hPa 0,0 l/m 29,7 km/h (5 Bft) SO 140 0 min 0 W/m -3,7 C -11,2 C 29,7 km/h (5 Bft)
12.02.2011 11:45 1,4 C 68 % 1018,5 hPa 0,0 l/m 28,8 km/h (5 Bft) SO 130 0 min 0 W/m -3,8 C -11,1 C 28,8 km/h (5 Bft)
12.02.2011 11:50 1,3 C 69 % 1018,5 hPa 0,0 l/m 19,3 km/h (3 Bft) O-SO 115 0 min 0 W/m -3,7 C -7,6 C 19,3 km/h (3 Bft)
12.02.2011 11:55 1,2 C 69 % 1018,5 hPa 0,0 l/m 29,1 km/h (5 Bft) SO 140 0 min 0 W/m -3,8 C -11,4 C 29,1 km/h (5 Bft)
12.02.2011 12:00 1,2 C 69 % 1018,5 hPa 0,0 l/m 28,0 km/h (5 Bft) S-SO 150 0 min 0 W/m -3,8 C -11,1 C 28,0 km/h (5 Bft)
12.02.2011 12:05 1,5 C 69 % 1018,5 hPa 0,0 l/m 31,4 km/h (5 Bft) SO 145 0 min 0 W/m -3,6 C -11,7 C 31,4 km/h (5 Bft)
12.02.2011 12:10 1,9 C 68 % 1018,5 hPa 0,0 l/m 31,4 km/h (5 Bft) SO 145 0 min 0 W/m -3,4 C -11,1 C 31,4 km/h (5 Bft)
12.02.2011 12:15 2,1 C 68 % 1018,5 hPa 0,0 l/m 21,2 km/h (4 Bft) SO 140 0 min 0 W/m -3,2 C -7,4 C 21,2 km/h (4 Bft)
12.02.2011 12:20 2,4 C 67 % 1018,5 hPa 0,0 l/m 23,3 km/h (4 Bft) SO 125 0 min 0 W/m -3,1 C -7,9 C 23,3 km/h (4 Bft)
12.02.2011 12:25 2,6 C 66 % 1017,5 hPa 0,0 l/m 27,1 km/h (5 Bft) SO 135 0 min 0 W/m -3,1 C -8,9 C 27,1 km/h (5 Bft)
12.02.2011 12:30 2,7 C 65 % 1017,5 hPa 0,0 l/m 25,6 km/h (4 Bft) SO 140 0 min 0 W/m -3,2 C -8,3 C 25,6 km/h (4 Bft)
12.02.2011 12:35 2,6 C 65 % 1017,5 hPa 0,0 l/m 23,6 km/h (4 Bft) SO 130 0 min 0 W/m -3,3 C -7,7 C 23,6 km/h (4 Bft)
12.02.2011 12:40 2,3 C 66 % 1017,5 hPa 0,0 l/m 23,1 km/h (4 Bft) SO 140 0 min 0 W/m -3,4 C -7,9 C 23,1 km/h (4 Bft)
12.02.2011 12:45 2,3 C 65 % 1017,5 hPa 0,0 l/m 29,3 km/h (5 Bft) SO 140 0 min 0 W/m -3,6 C -10,0 C 29,3 km/h (5 Bft)
12.02.2011 12:50 2,3 C 66 % 1017,5 hPa 0,0 l/m 34,4 km/h (5 Bft) S-SO 150 0 min 0 W/m -3,4 C -11,3 C 34,4 km/h (5 Bft)
12.02.2011 12:55 2,4 C 66 % 1017,5 hPa 0,0 l/m 28,5 km/h (5 Bft) S-SO 150 0 min 0 W/m -3,3 C -9,6 C 28,5 km/h (5 Bft)
12.02.2011 13:00 2,4 C 65 % 1017,5 hPa 0,0 l/m 26,6 km/h (4 Bft) S-SO 150 0 min 0 W/m -3,5 C -9,0 C 26,6 km/h (4 Bft)
12.02.2011 13:05 2,4 C 65 % 1017,5 hPa 0,0 l/m 26,6 km/h (4 Bft) S-SO 150 0 min 0 W/m -3,5 C -9,0 C 26,6 km/h (4 Bft)
12.02.2011 13:10 2,3 C 66 % 1017,5 hPa 0,0 l/m 24,4 km/h (4 Bft) SO 140 0 min 0 W/m -3,4 C -8,4 C 24,4 km/h (4 Bft)
12.02.2011 13:15 2,2 C 65 % 1017,5 hPa 0,0 l/m 24,1 km/h (4 Bft) SO 145 0 min 0 W/m -3,7 C -8,4 C 24,1 km/h (4 Bft)
12.02.2011 13:20 2,2 C 65 % 1017,5 hPa 0,0 l/m 27,5 km/h (5 Bft) S-SO 160 0 min 0 W/m -3,7 C -9,6 C 27,5 km/h (5 Bft)
12.02.2011 13:25 2,2 C 66 % 1017,5 hPa 0,0 l/m 26,7 km/h (4 Bft) SO 135 0 min 0 W/m -3,5 C -9,3 C 26,7 km/h (4 Bft)
12.02.2011 13:30 2,2 C 66 % 1017,5 hPa 0,0 l/m 23,1 km/h (4 Bft) O-SO 115 0 min 0 W/m -3,5 C -8,0 C 23,1 km/h (4 Bft)
12.02.2011 13:36 2,3 C 67 % 1016,5 hPa 0,0 l/m 23,8 km/h (4 Bft) SO 140 0 min 0 W/m -3,2 C -8,2 C 23,8 km/h (4 Bft)
12.02.2011 13:40 2,5 C 65 % 1016,5 hPa 0,0 l/m 34,3 km/h (5 Bft) SO 130 0 min 0 W/m -3,4 C -11,0 C 34,3 km/h (5 Bft)
12.02.2011 13:45 2,7 C 65 % 1016,5 hPa 0,0 l/m 23,5 km/h (4 Bft) SO 135 0 min 0 W/m -3,2 C -7,5 C 23,5 km/h (4 Bft)
12.02.2011 13:50 2,8 C 65 % 1016,5 hPa 0,0 l/m 22,8 km/h (4 Bft) SO 135 0 min 0 W/m -3,1 C -7,1 C 22,8 km/h (4 Bft)
12.02.2011 13:55 2,7 C 64 % 1016,5 hPa 0,0 l/m 32,1 km/h (5 Bft) SO 125 0 min 0 W/m -3,4 C -10,2 C 32,1 km/h (5 Bft)
12.02.2011 14:00 2,5 C 65 % 1016,5 hPa 0,0 l/m 13,5 km/h (3 Bft) SO 135 0 min 0 W/m -3,4 C -3,1 C 13,5 km/h (3 Bft)
12.02.2011 14:05 2,3 C 65 % 1016,5 hPa 0,0 l/m 26,0 km/h (4 Bft) SO 130 0 min 0 W/m -3,6 C -8,9 C 26,0 km/h (4 Bft)
12.02.2011 14:10 2,3 C 65 % 1016,5 hPa 0,0 l/m 23,2 km/h (4 Bft) SO 135 0 min 0 W/m -3,6 C -8,0 C 23,2 km/h (4 Bft)
12.02.2011 14:15 2,2 C 66 % 1016,5 hPa 0,0 l/m 25,5 km/h (4 Bft) SO 145 0 min 0 W/m -3,5 C -8,9 C 25,5 km/h (4 Bft)
12.02.2011 14:20 2,1 C 66 % 1016,5 hPa 0,0 l/m 29,5 km/h (5 Bft) SO 145 0 min 0 W/m -3,6 C -10,3 C 29,5 km/h (5 Bft)
12.02.2011 14:25 2,0 C 66 % 1016,5 hPa 0,0 l/m 22,3 km/h (4 Bft) S-SO 150 0 min 0 W/m -3,7 C -8,0 C 22,3 km/h (4 Bft)
12.02.2011 14:30 2,0 C 66 % 1016,5 hPa 0,0 l/m 25,3 km/h (4 Bft) SO 125 0 min 0 W/m -3,7 C -9,1 C 25,3 km/h (4 Bft)
12.02.2011 14:36 2,1 C 66 % 1016,5 hPa 0,0 l/m 27,3 km/h (5 Bft) SO 140 0 min 0 W/m -3,6 C -9,6 C 27,3 km/h (5 Bft)
12.02.2011 14:40 2,2 C 66 % 1016,5 hPa 0,0 l/m 32,5 km/h (5 Bft) SO 130 0 min 0 W/m -3,5 C -11,0 C 32,5 km/h (5 Bft)
12.02.2011 14:45 2,3 C 66 % 1016,5 hPa 0,0 l/m 27,3 km/h (5 Bft) SO 125 0 min 0 W/m -3,4 C -9,4 C 27,3 km/h (5 Bft)
12.02.2011 14:50 2,4 C 65 % 1016,5 hPa 0,0 l/m 36,0 km/h (5 Bft) SO 125 0 min 0 W/m -3,5 C -11,5 C 36,0 km/h (5 Bft)
12.02.2011 14:55 2,2 C 66 % 1016,5 hPa 0,0 l/m 26,1 km/h (4 Bft) SO 135 0 min 0 W/m -3,5 C -9,1 C 26,1 km/h (4 Bft)
12.02.2011 15:00 2,1 C 66 % 1016,5 hPa 0,0 l/m 23,8 km/h (4 Bft) SO 130 0 min 0 W/m -3,6 C -8,4 C 23,8 km/h (4 Bft)
12.02.2011 15:05 1,9 C 66 % 1015,5 hPa 0,0 l/m 27,1 km/h (5 Bft) SO 145 0 min 0 W/m -3,8 C -9,9 C 27,1 km/h (5 Bft)
12.02.2011 15:10 1,9 C 67 % 1015,5 hPa 0,0 l/m 26,5 km/h (4 Bft) SO 130 0 min 0 W/m -3,6 C -9,7 C 26,5 km/h (4 Bft)
12.02.2011 15:15 1,9 C 67 % 1015,5 hPa 0,0 l/m 26,7 km/h (4 Bft) SO 125 0 min 0 W/m -3,6 C -9,7 C 26,7 km/h (4 Bft)
12.02.2011 15:20 1,8 C 67 % 1015,5 hPa 0,0 l/m 26,7 km/h (4 Bft) SO 125 0 min 0 W/m -3,7 C -9,9 C 26,7 km/h (4 Bft)
12.02.2011 15:25 1,8 C 66 % 1015,5 hPa 0,0 l/m 25,1 km/h (4 Bft) S-SO 150 0 min 0 W/m -3,9 C -9,3 C 25,1 km/h (4 Bft)
12.02.2011 15:30 1,8 C 66 % 1015,5 hPa 0,0 l/m 21,2 km/h (4 Bft) SO 140 0 min 0 W/m -3,9 C -7,8 C 21,2 km/h (4 Bft)
12.02.2011 15:35 1,8 C 66 % 1015,5 hPa 0,0 l/m 15,9 km/h (3 Bft) SO 130 0 min 0 W/m -3,9 C -5,3 C 15,9 km/h (3 Bft)
12.02.2011 15:40 1,8 C 67 % 1015,5 hPa 0,0 l/m 30,5 km/h (5 Bft) SO 140 0 min 0 W/m -3,7 C -11,0 C 30,5 km/h (5 Bft)
12.02.2011 15:45 1,8 C 66 % 1015,5 hPa 0,0 l/m 18,0 km/h (3 Bft) SO 130 0 min 0 W/m -3,9 C -6,4 C 18,0 km/h (3 Bft)
12.02.2011 15:50 1,9 C 66 % 1015,5 hPa 0,0 l/m 27,6 km/h (5 Bft) SO 135 0 min 0 W/m -3,8 C -10,0 C 27,6 km/h (5 Bft)
12.02.2011 15:55 1,9 C 65 % 1015,5 hPa 0,0 l/m 25,1 km/h (4 Bft) SO 145 0 min 0 W/m -4,0 C -9,2 C 25,1 km/h (4 Bft)
12.02.2011 16:00 1,9 C 65 % 1015,5 hPa 0,0 l/m 30,3 km/h (5 Bft) S-SO 155 0 min 0 W/m -4,0 C -10,8 C 30,3 km/h (5 Bft)
12.02.2011 16:05 1,9 C 65 % 1015,5 hPa 0,0 l/m 30,0 km/h (5 Bft) SO 140 0 min 0 W/m -4,0 C -10,7 C 30,0 km/h (5 Bft)
12.02.2011 16:10 1,9 C 65 % 1014,5 hPa 0,0 l/m 23,3 km/h (4 Bft) SO 140 0 min 0 W/m -4,0 C -8,5 C 23,3 km/h (4 Bft)
12.02.2011 16:15 1,9 C 65 % 1014,5 hPa 0,0 l/m 22,4 km/h (4 Bft) SO 140 0 min 0 W/m -4,0 C -8,2 C 22,4 km/h (4 Bft)
12.02.2011 16:20 1,9 C 65 % 1014,5 hPa 0,0 l/m 28,4 km/h (5 Bft) S-SO 150 0 min 0 W/m -4,0 C -10,3 C 28,4 km/h (5 Bft)
12.02.2011 16:25 2,3 C 65 % 1014,5 hPa 0,0 l/m 27,0 km/h (5 Bft) SO 140 0 min 0 W/m -3,6 C -9,3 C 27,0 km/h (5 Bft)
12.02.2011 16:31 2,3 C 64 % 1014,5 hPa 0,0 l/m 31,5 km/h (5 Bft) S-SO 150 0 min 0 W/m -3,8 C -10,6 C 31,5 km/h (5 Bft)
12.02.2011 16:35 2,1 C 64 % 1014,5 hPa 0,0 l/m 28,5 km/h (5 Bft) SO 135 0 min 0 W/m -4,0 C -10,0 C 28,5 km/h (5 Bft)
12.02.2011 16:40 2,1 C 64 % 1014,5 hPa 0,0 l/m 27,0 km/h (5 Bft) SO 140 0 min 0 W/m -4,0 C -9,5 C 27,0 km/h (5 Bft)
12.02.2011 16:45 2,0 C 64 % 1014,5 hPa 0,0 l/m 28,8 km/h (5 Bft) SO 145 0 min 0 W/m -4,1 C -10,2 C 28,8 km/h (5 Bft)
12.02.2011 16:50 1,9 C 65 % 1014,5 hPa 0,0 l/m 27,6 km/h (5 Bft) S-SO 150 0 min 0 W/m -4,0 C -10,0 C 27,6 km/h (5 Bft)
12.02.2011 16:55 1,8 C 65 % 1014,5 hPa 0,0 l/m 30,5 km/h (5 Bft) SO 125 0 min 0 W/m -4,1 C -11,0 C 30,5 km/h (5 Bft)
12.02.2011 17:00 1,8 C 65 % 1014,5 hPa 0,0 l/m 36,1 km/h (5 Bft) SO 145 0 min 0 W/m -4,1 C -12,4 C 36,1 km/h (5 Bft)
12.02.2011 17:05 1,7 C 65 % 1014,5 hPa 0,0 l/m 29,1 km/h (5 Bft) SO 135 0 min 0 W/m -4,2 C -10,8 C 29,1 km/h (5 Bft)
12.02.2011 17:10 1,7 C 66 % 1014,5 hPa 0,0 l/m 28,2 km/h (5 Bft) S-SO 155 0 min 0 W/m -4,0 C -10,5 C 28,2 km/h (5 Bft)
12.02.2011 17:15 1,7 C 66 % 1014,5 hPa 0,0 l/m 32,0 km/h (5 Bft) SO 145 0 min 0 W/m -4,0 C -11,6 C 32,0 km/h (5 Bft)
12.02.2011 17:20 1,7 C 66 % 1014,5 hPa 0,0 l/m 26,6 km/h (4 Bft) S-SO 155 0 min 0 W/m -4,0 C -10,0 C 26,6 km/h (4 Bft)
12.02.2011 17:26 1,6 C 66 % 1014,5 hPa 0,0 l/m 26,3 km/h (4 Bft) SO 140 0 min 0 W/m -4,1 C -10,0 C 26,3 km/h (4 Bft)
12.02.2011 17:30 1,6 C 66 % 1014,5 hPa 0,0 l/m 20,2 km/h (4 Bft) SO 140 0 min 0 W/m -4,1 C -7,7 C 20,2 km/h (4 Bft)
12.02.2011 17:35 1,6 C 66 % 1014,5 hPa 0,0 l/m 27,6 km/h (5 Bft) S-SO 150 0 min 0 W/m -4,1 C -10,4 C 27,6 km/h (5 Bft)
12.02.2011 17:40 1,5 C 66 % 1014,5 hPa 0,0 l/m 22,6 km/h (4 Bft) S-SO 150 0 min 0 W/m -4,1 C -8,8 C 22,6 km/h (4 Bft)
12.02.2011 17:45 1,5 C 66 % 1013,5 hPa 0,0 l/m 27,1 km/h (5 Bft) SO 140 0 min 0 W/m -4,1 C -10,4 C 27,1 km/h (5 Bft)
12.02.2011 17:50 1,5 C 67 % 1013,5 hPa 0,0 l/m 23,8 km/h (4 Bft) S-SO 150 0 min 0 W/m -3,9 C -9,2 C 23,8 km/h (4 Bft)
12.02.2011 17:55 1,5 C 66 % 1013,5 hPa 0,0 l/m 30,2 km/h (5 Bft) S-SO 160 0 min 0 W/m -4,1 C -11,4 C 30,2 km/h (5 Bft)
12.02.2011 18:00 1,5 C 67 % 1014,5 hPa 0,0 l/m 22,3 km/h (4 Bft) S-SO 155 0 min 0 W/m -3,9 C -8,7 C 22,3 km/h (4 Bft)
12.02.2011 18:05 1,5 C 66 % 1013,5 hPa 0,0 l/m 31,6 km/h (5 Bft) S-SO 155 0 min 0 W/m -4,1 C -11,7 C 31,6 km/h (5 Bft)
12.02.2011 18:10 1,5 C 67 % 1013,5 hPa 0,0 l/m 23,1 km/h (4 Bft) SO 140 0 min 0 W/m -3,9 C -9,0 C 23,1 km/h (4 Bft)
12.02.2011 18:15 1,5 C 67 % 1013,5 hPa 0,0 l/m 29,7 km/h (5 Bft) S-SO 150 0 min 0 W/m -3,9 C -11,2 C 29,7 km/h (5 Bft)
12.02.2011 18:21 1,4 C 67 % 1013,5 hPa 0,0 l/m 24,6 km/h (4 Bft) S-SO 155 0 min 0 W/m -4,0 C -9,7 C 24,6 km/h (4 Bft)
12.02.2011 18:25 1,4 C 67 % 1013,5 hPa 0,0 l/m 21,0 km/h (4 Bft) SO 140 0 min 0 W/m -4,0 C -8,3 C 21,0 km/h (4 Bft)
12.02.2011 18:30 1,3 C 67 % 1013,5 hPa 0,0 l/m 26,3 km/h (4 Bft) SO 145 0 min 0 W/m -4,1 C -10,4 C 26,3 km/h (4 Bft)
12.02.2011 18:35 1,3 C 67 % 1013,5 hPa 0,0 l/m 27,3 km/h (5 Bft) S-SO 150 0 min 0 W/m -4,1 C -10,7 C 27,3 km/h (5 Bft)
12.02.2011 18:40 1,3 C 67 % 1013,5 hPa 0,0 l/m 32,2 km/h (5 Bft) SO 140 0 min 0 W/m -4,1 C -12,2 C 32,2 km/h (5 Bft)
12.02.2011 18:45 1,3 C 67 % 1013,5 hPa 0,0 l/m 25,5 km/h (4 Bft) S-SO 150 0 min 0 W/m -4,1 C -10,1 C 25,5 km/h (4 Bft)
12.02.2011 18:50 1,4 C 68 % 1013,5 hPa 0,0 l/m 25,3 km/h (4 Bft) S-SO 155 0 min 0 W/m -3,8 C -9,9 C 25,3 km/h (4 Bft)
12.02.2011 18:55 1,4 C 67 % 1013,5 hPa 0,0 l/m 23,7 km/h (4 Bft) SO 140 0 min 0 W/m -4,0 C -9,3 C 23,7 km/h (4 Bft)
12.02.2011 19:00 1,3 C 67 % 1013,5 hPa 0,0 l/m 30,0 km/h (5 Bft) SO 145 0 min 0 W/m -4,1 C -11,6 C 30,0 km/h (5 Bft)
12.02.2011 19:05 1,3 C 67 % 1013,5 hPa 0,0 l/m 27,3 km/h (5 Bft) SO 140 0 min 0 W/m -4,1 C -10,7 C 27,3 km/h (5 Bft)
12.02.2011 19:10 1,3 C 68 % 1013,5 hPa 0,0 l/m 26,3 km/h (4 Bft) S-SO 150 0 min 0 W/m -3,9 C -10,4 C 26,3 km/h (4 Bft)
12.02.2011 19:15 1,3 C 69 % 1013,5 hPa 0,0 l/m 21,8 km/h (4 Bft) S-SO 160 0 min 0 W/m -3,7 C -8,7 C 21,8 km/h (4 Bft)
12.02.2011 19:20 1,2 C 69 % 1013,5 hPa 0,0 l/m 21,1 km/h (4 Bft) SO 145 0 min 0 W/m -3,8 C -8,6 C 21,1 km/h (4 Bft)
12.02.2011 19:25 1,2 C 70 % 1013,5 hPa 0,0 l/m 21,5 km/h (4 Bft) SO 140 0 min 0 W/m -3,7 C -8,7 C 21,5 km/h (4 Bft)
12.02.2011 19:30 1,2 C 71 % 1013,5 hPa 0,0 l/m 28,6 km/h (5 Bft) SO 140 0 min 0 W/m -3,5 C -11,3 C 28,6 km/h (5 Bft)
12.02.2011 19:35 1,2 C 71 % 1013,5 hPa 0,0 l/m 23,5 km/h (4 Bft) SO 135 0 min 0 W/m -3,5 C -9,5 C 23,5 km/h (4 Bft)
12.02.2011 19:40 1,0 C 75 % 1013,5 hPa 0,0 l/m 26,4 km/h (4 Bft) SO 140 0 min 0 W/m -2,9 C -10,9 C 26,4 km/h (4 Bft)
12.02.2011 19:46 0,7 C 77 % 1013,5 hPa 0,0 l/m 25,8 km/h (4 Bft) S-SO 155 0 min 0 W/m -2,9 C -11,1 C 25,8 km/h (4 Bft)
12.02.2011 19:50 0,6 C 79 % 1013,5 hPa 0,0 l/m 32,4 km/h (5 Bft) S-SO 160 0 min 0 W/m -2,6 C -13,2 C 32,4 km/h (5 Bft)
12.02.2011 19:55 0,5 C 80 % 1013,5 hPa 0,0 l/m 15,3 km/h (3 Bft) SO 140 0 min 0 W/m -2,5 C -6,6 C 15,3 km/h (3 Bft)
12.02.2011 20:00 0,3 C 81 % 1013,5 hPa 0,0 l/m 29,3 km/h (5 Bft) SO 145 0 min 0 W/m -2,6 C -12,8 C 29,3 km/h (5 Bft)
12.02.2011 20:06 0,3 C 82 % 1012,5 hPa 0,0 l/m 25,2 km/h (4 Bft) S-SO 155 0 min 0 W/m -2,4 C -11,4 C 25,2 km/h (4 Bft)
12.02.2011 20:10 0,2 C 83 % 1012,5 hPa 0,0 l/m 20,0 km/h (4 Bft) SO 140 0 min 0 W/m -2,3 C -9,4 C 20,0 km/h (4 Bft)
12.02.2011 20:15 0,2 C 83 % 1012,5 hPa 0,0 l/m 25,5 km/h (4 Bft) S-SO 150 0 min 0 W/m -2,3 C -11,6 C 25,5 km/h (4 Bft)
12.02.2011 20:20 0,1 C 84 % 1012,5 hPa 0,0 l/m 23,3 km/h (4 Bft) S-SO 150 0 min 0 W/m -2,3 C -10,9 C 23,3 km/h (4 Bft)
12.02.2011 20:25 0,1 C 84 % 1012,5 hPa 0,0 l/m 27,6 km/h (5 Bft) S-SO 150 0 min 0 W/m -2,3 C -12,5 C 27,6 km/h (5 Bft)
12.02.2011 20:30 0,1 C 84 % 1012,5 hPa 0,0 l/m 19,4 km/h (3 Bft) SO 140 0 min 0 W/m -2,3 C -9,2 C 19,4 km/h (3 Bft)
12.02.2011 20:36 0,1 C 84 % 1012,5 hPa 0,0 l/m 19,4 km/h (3 Bft) SO 140 0 min 0 W/m -2,3 C -9,2 C 19,4 km/h (3 Bft)
12.02.2011 20:40 0,1 C 84 % 1012,5 hPa 0,0 l/m 22,7 km/h (4 Bft) S-SO 150 0 min 0 W/m -2,3 C -10,7 C 22,7 km/h (4 Bft)
12.02.2011 20:45 0,1 C 85 % 1012,5 hPa 0,0 l/m 23,6 km/h (4 Bft) S-SO 150 0 min 0 W/m -2,1 C -11,0 C 23,6 km/h (4 Bft)
12.02.2011 20:50 0,1 C 85 % 1012,5 hPa 0,0 l/m 35,4 km/h (5 Bft) S-SO 160 0 min 0 W/m -2,1 C -14,7 C 35,4 km/h (5 Bft)
12.02.2011 20:55 0,0 C 85 % 1012,5 hPa 0,0 l/m 28,5 km/h (5 Bft) S-SO 150 0 min 0 W/m -2,2 C -12,9 C 28,5 km/h (5 Bft)
12.02.2011 21:00 0,0 C 86 % 1012,5 hPa 0,0 l/m 28,5 km/h (5 Bft) S-SO 150 0 min 0 W/m -2,1 C -12,9 C 28,5 km/h (5 Bft)
12.02.2011 21:05 0,0 C 86 % 1012,5 hPa 0,0 l/m 26,7 km/h (4 Bft) S-SO 150 0 min 0 W/m -2,1 C -12,3 C 26,7 km/h (4 Bft)
12.02.2011 21:10 -0,2 C 86 % 1012,5 hPa 0,0 l/m 25,0 km/h (4 Bft) S-SO 155 0 min 0 W/m -2,3 C -12,0 C 25,0 km/h (4 Bft)
12.02.2011 21:15 -0,2 C 86 % 1012,5 hPa 0,0 l/m 25,0 km/h (4 Bft) S-SO 155 0 min 0 W/m -2,3 C -12,0 C 25,0 km/h (4 Bft)
12.02.2011 21:20 -0,2 C 86 % 1012,5 hPa 0,0 l/m 22,2 km/h (4 Bft) SO 140 0 min 0 W/m -2,3 C -10,9 C 22,2 km/h (4 Bft)
12.02.2011 21:26 -0,2 C 86 % 1012,5 hPa 0,0 l/m 21,0 km/h (4 Bft) S-SO 150 0 min 0 W/m -2,3 C -10,3 C 21,0 km/h (4 Bft)
12.02.2011 21:30 -0,2 C 86 % 1012,5 hPa 0,0 l/m 23,0 km/h (4 Bft) S-SO 150 0 min 0 W/m -2,3 C -11,2 C 23,0 km/h (4 Bft)
12.02.2011 21:35 -0,2 C 86 % 1012,5 hPa 0,0 l/m 25,9 km/h (4 Bft) S-SO 150 0 min 0 W/m -2,3 C -12,3 C 25,9 km/h (4 Bft)
12.02.2011 21:40 -0,2 C 86 % 1012,5 hPa 0,0 l/m 25,0 km/h (4 Bft) S-SO 150 0 min 0 W/m -2,3 C -12,0 C 25,0 km/h (4 Bft)
12.02.2011 21:45 -0,2 C 86 % 1011,5 hPa 0,0 l/m 22,0 km/h (4 Bft) SO 140 0 min 0 W/m -2,3 C -10,8 C 22,0 km/h (4 Bft)
12.02.2011 21:50 -0,2 C 86 % 1011,5 hPa 0,0 l/m 25,1 km/h (4 Bft) S-SO 150 0 min 0 W/m -2,3 C -12,0 C 25,1 km/h (4 Bft)
12.02.2011 21:55 -0,2 C 87 % 1011,5 hPa 0,0 l/m 24,7 km/h (4 Bft) S-SO 150 0 min 0 W/m -2,1 C -11,9 C 24,7 km/h (4 Bft)
12.02.2011 22:00 -0,2 C 87 % 1011,5 hPa 0,0 l/m 29,1 km/h (5 Bft) S-SO 150 0 min 0 W/m -2,1 C -13,4 C 29,1 km/h (5 Bft)
12.02.2011 22:05 -0,2 C 87 % 1012,5 hPa 0,0 l/m 19,4 km/h (3 Bft) S-SO 150 0 min 0 W/m -2,1 C -9,6 C 19,4 km/h (3 Bft)
12.02.2011 22:10 -0,2 C 87 % 1012,5 hPa 0,0 l/m 27,2 km/h (5 Bft) S-SO 155 0 min 0 W/m -2,1 C -12,8 C 27,2 km/h (5 Bft)
12.02.2011 22:15 -0,2 C 87 % 1011,5 hPa 0,0 l/m 28,0 km/h (5 Bft) SO 135 0 min 0 W/m -2,1 C -13,0 C 28,0 km/h (5 Bft)
12.02.2011 22:20 -0,2 C 87 % 1011,5 hPa 0,0 l/m 29,7 km/h (5 Bft) S-SO 150 0 min 0 W/m -2,1 C -13,6 C 29,7 km/h (5 Bft)
12.02.2011 22:25 -0,2 C 87 % 1012,5 hPa 0,0 l/m 18,5 km/h (3 Bft) S-SO 160 0 min 0 W/m -2,1 C -9,2 C 18,5 km/h (3 Bft)
12.02.2011 22:30 -0,2 C 87 % 1011,5 hPa 0,0 l/m 24,0 km/h (4 Bft) SO 140 0 min 0 W/m -2,1 C -11,6 C 24,0 km/h (4 Bft)
12.02.2011 22:35 -0,2 C 87 % 1011,5 hPa 0,0 l/m 23,6 km/h (4 Bft) S-SO 165 0 min 0 W/m -2,1 C -11,4 C 23,6 km/h (4 Bft)
12.02.2011 22:40 -0,2 C 87 % 1011,5 hPa 0,0 l/m 22,6 km/h (4 Bft) S-SO 155 0 min 0 W/m -2,1 C -11,0 C 22,6 km/h (4 Bft)
12.02.2011 22:46 -0,2 C 87 % 1011,5 hPa 0,0 l/m 26,3 km/h (4 Bft) S-SO 155 0 min 0 W/m -2,1 C -12,5 C 26,3 km/h (4 Bft)
12.02.2011 22:50 -0,2 C 87 % 1011,5 hPa 0,0 l/m 26,3 km/h (4 Bft) S-SO 155 0 min 0 W/m -2,1 C -12,5 C 26,3 km/h (4 Bft)
12.02.2011 22:55 -0,2 C 87 % 1011,5 hPa 0,0 l/m 25,4 km/h (4 Bft) SO 140 0 min 0 W/m -2,1 C -12,1 C 25,4 km/h (4 Bft)
12.02.2011 23:00 -0,2 C 87 % 1011,5 hPa 0,0 l/m 27,6 km/h (5 Bft) S-SO 155 0 min 0 W/m -2,1 C -12,9 C 27,6 km/h (5 Bft)
12.02.2011 23:05 -0,2 C 87 % 1011,5 hPa 0,0 l/m 16,8 km/h (3 Bft) S-SO 150 0 min 0 W/m -2,1 C -8,3 C 16,8 km/h (3 Bft)
12.02.2011 23:10 -0,2 C 87 % 1011,5 hPa 0,0 l/m 30,0 km/h (5 Bft) S-SO 155 0 min 0 W/m -2,1 C -13,7 C 30,0 km/h (5 Bft)
12.02.2011 23:15 -0,2 C 87 % 1011,5 hPa 0,0 l/m 28,6 km/h (5 Bft) SO 130 0 min 0 W/m -2,1 C -13,2 C 28,6 km/h (5 Bft)
12.02.2011 23:20 -0,2 C 87 % 1011,5 hPa 0,0 l/m 19,6 km/h (3 Bft) S-SO 150 0 min 0 W/m -2,1 C -9,7 C 19,6 km/h (3 Bft)
12.02.2011 23:25 -0,2 C 87 % 1011,5 hPa 0,0 l/m 30,3 km/h (5 Bft) S-SO 150 0 min 0 W/m -2,1 C -13,8 C 30,3 km/h (5 Bft)
12.02.2011 23:30 -0,2 C 87 % 1011,5 hPa 0,0 l/m 19,4 km/h (3 Bft) SO 145 0 min 0 W/m -2,1 C -9,6 C 19,4 km/h (3 Bft)
12.02.2011 23:36 -0,2 C 88 % 1011,5 hPa 0,0 l/m 24,5 km/h (4 Bft) S-SO 150 0 min 0 W/m -1,9 C -11,8 C 24,5 km/h (4 Bft)
12.02.2011 23:40 -0,2 C 88 % 1011,5 hPa 0,0 l/m 24,3 km/h (4 Bft) SO 145 0 min 0 W/m -1,9 C -11,7 C 24,3 km/h (4 Bft)
12.02.2011 23:45 -0,2 C 88 % 1011,5 hPa 0,0 l/m 22,6 km/h (4 Bft) SO 145 0 min 0 W/m -1,9 C -11,0 C 22,6 km/h (4 Bft)
12.02.2011 23:50 -0,2 C 88 % 1011,5 hPa 0,0 l/m 19,1 km/h (3 Bft) S-SO 150 0 min 0 W/m -1,9 C -9,5 C 19,1 km/h (3 Bft)
12.02.2011 23:55 -0,2 C 88 % 1011,5 hPa 0,0 l/m 22,4 km/h (4 Bft) SO 140 0 min 0 W/m -1,9 C -11,0 C 22,4 km/h (4 Bft)
_ Min-Zeit 08:55 13:55 21:45 - 01:01 - - - - 08:55 20:50 01:01
Minimum _ -0,2 C 64 % 1011,5 hPa - 7,9 km/h (2 Bft) - - - - -4,4 C -14,7 C 7,9 km/h (2 Bft)
_ Max-Zeit 13:50 23:36 04:40 01:15 17:00 - - 00:00 00:00 00:00 01:01 17:00
Maximum _ 2,8 C 88 % 1019,5 hPa 0,3 l/m 36,1 km/h
SO (5 Bft)
- - 0 min 0 W/m -1,7 C -0,3 C 36,1 km/h
S-SO (5 Bft)
Durchschnitt _ 1,0 C 73 % 1016,5 hPa #0,3 l/m 22,9 km/h (4 Bft) SO - #0 min. 0 W/m -3,3 C -9,3 C 22,9 km/h (4 Bft)
copyright by Holger Just